Clintonville, West Virginia
Current Conditions -  °F | °C
As of 12:35 PM on Tuesday 21 Oct 2014 (Local Time) from KLWB Reporting Station
Overcast Overcast  
Wind Chill: 55°   Ceiling: 6000
Heat Index: 55°   Visibility: 10mi
Dew Point: 47°   Wind: 7mph
Humidity: 77%   Direction: 250°WSW
Pressure: 29.92"   Gusts: NA
Location:  37.9616°N, 80.6134°W
Report Text: KLWB 211635Z AUTO 25006KT 10SM SCT023 SCT034 OVC060 13/09 A2992 RMK AO2 T01250085
Loading
Personal Weather Stations






























Interactive Weather Map
Tropical Storm Tracking
New forecast layout! Learn more

10-Day Weather Forecast

Advertisements
Track Severe Weather on mobile